createdAt,value
2023-02-11T00:02:29.704Z,101735.55
2023-02-11T00:05:01.445Z,101735.45
2023-02-11T00:07:32.783Z,101735.45
2023-02-11T00:10:03.052Z,101725.89
2023-02-11T00:12:32.805Z,101726.77
2023-02-11T00:15:02.636Z,101726.77
2023-02-11T00:17:34.051Z,101720.14
2023-02-11T00:20:05.482Z,101720.08
2023-02-11T00:22:35.463Z,101715.80
2023-02-11T00:25:06.465Z,101717.78
2023-02-11T00:27:38.580Z,101715.10
2023-02-11T00:30:08.991Z,101718.59
2023-02-11T00:32:38.722Z,101716.06
2023-02-11T00:35:08.837Z,101708.87
2023-02-11T00:37:38.985Z,101702.88
2023-02-11T00:40:09.121Z,101702.91
2023-02-11T00:42:38.708Z,101710.25
2023-02-11T00:45:09.908Z,101709.38
2023-02-11T00:47:39.917Z,101708.36
2023-02-11T00:50:09.649Z,101703.47
2023-02-11T00:52:40.403Z,101697.45
2023-02-11T00:55:10.954Z,101696.22
2023-02-11T00:57:40.742Z,101692.75
2023-02-11T01:00:12.739Z,101692.25
2023-02-11T01:02:42.587Z,101683.56
2023-02-11T01:05:12.619Z,101681.89
2023-02-11T01:07:42.404Z,101680.84
2023-02-11T01:10:12.689Z,101673.00
2023-02-11T01:12:42.473Z,101665.95
2023-02-11T01:15:14.994Z,101665.16
2023-02-11T01:17:44.921Z,101663.00
2023-02-11T01:20:20.490Z,101665.09
2023-02-11T01:22:50.655Z,101645.11
2023-02-11T01:25:20.646Z,101639.27
2023-02-11T01:27:50.426Z,101641.25
2023-02-11T01:30:20.351Z,101628.82
2023-02-11T01:32:50.139Z,101638.41
2023-02-11T01:35:19.822Z,101630.49
2023-02-11T01:37:49.615Z,101624.38
2023-02-11T01:40:20.639Z,101624.38
2023-02-11T01:42:51.130Z,101611.24
2023-02-11T01:45:43.764Z,101608.77
2023-02-11T01:48:17.393Z,101597.77
2023-02-11T01:50:50.240Z,101589.05
2023-02-11T01:53:37.788Z,101591.09
2023-02-11T01:56:27.061Z,101584.26
2023-02-11T01:59:00.634Z,101581.70
2023-02-11T02:01:33.130Z,101579.10
2023-02-11T02:04:07.315Z,101570.28
2023-02-11T02:06:51.934Z,101570.76
2023-02-11T02:09:27.275Z,101571.56
2023-02-11T02:11:57.203Z,101568.53
2023-02-11T02:14:26.830Z,101570.72
2023-02-11T02:16:56.436Z,101565.53
2023-02-11T02:19:47.491Z,101561.95
2023-02-11T02:22:35.338Z,101559.24
2023-02-11T02:25:27.206Z,101555.75
2023-02-11T02:28:35.407Z,101546.71
2023-02-11T02:31:14.824Z,101540.98
2023-02-11T02:33:56.562Z,101530.88
2023-02-11T02:36:26.826Z,101534.68
2023-02-11T02:39:02.061Z,101527.34
2023-02-11T02:41:35.215Z,101529.16
2023-02-11T02:44:08.361Z,101524.32
2023-02-11T02:50:06.450Z,101519.13
2023-02-11T02:52:57.621Z,101510.72
2023-02-11T02:55:37.188Z,101499.01
2023-02-11T02:58:18.549Z,101510.59
2023-02-11T03:00:54.352Z,101505.52
2023-02-11T03:03:29.756Z,101504.33
2023-02-11T03:06:02.561Z,101497.23
2023-02-11T03:08:35.384Z,101497.23
2023-02-11T03:11:09.340Z,101478.86
2023-02-11T03:13:42.097Z,101478.84
2023-02-11T03:16:20.710Z,101492.87
2023-02-11T03:18:53.550Z,101494.48
2023-02-11T03:21:25.917Z,101487.99
2023-02-11T03:23:58.575Z,101490.24
2023-02-11T03:26:31.402Z,101487.02
2023-02-11T03:29:07.003Z,101484.30
2023-02-11T03:31:39.959Z,101490.90
2023-02-11T03:34:15.654Z,101490.90
2023-02-11T03:36:54.556Z,101495.17
2023-02-11T03:39:30.080Z,101481.99
2023-02-11T03:42:02.940Z,101478.38
2023-02-11T03:44:35.746Z,101480.47
2023-02-11T03:47:10.017Z,101484.25
2023-02-11T03:49:42.728Z,101480.03
2023-02-11T03:52:13.739Z,101481.66
2023-02-11T03:54:46.715Z,101475.23
2023-02-11T03:57:16.537Z,101474.91
2023-02-11T03:59:58.178Z,101469.17
2023-02-11T04:02:30.977Z,101473.41
2023-02-11T04:05:00.932Z,101462.56
2023-02-11T04:07:30.859Z,101457.77
2023-02-11T04:10:00.955Z,101451.11
2023-02-11T04:12:30.543Z,101447.80
2023-02-11T04:15:00.318Z,101451.22
2023-02-11T04:17:30.131Z,101439.29
2023-02-11T04:19:59.924Z,101433.60
2023-02-11T04:22:30.352Z,101430.24
2023-02-11T04:24:59.831Z,101421.70
2023-02-11T04:27:29.775Z,101418.89
2023-02-11T04:30:01.207Z,101418.62
2023-02-11T04:32:30.955Z,101417.65
2023-02-11T04:35:01.185Z,101406.58
2023-02-11T04:37:31.039Z,101402.73
2023-02-11T04:40:00.798Z,101410.84
2023-02-11T04:42:30.587Z,101412.77
2023-02-11T04:45:00.407Z,101405.39
2023-02-11T04:47:30.558Z,101404.27
2023-02-11T04:50:01.709Z,101411.76
2023-02-11T04:52:31.442Z,101411.76
2023-02-11T04:55:01.572Z,101413.00
2023-02-11T04:57:31.365Z,101398.59
2023-02-11T05:00:01.134Z,101388.06
2023-02-11T05:02:30.909Z,101396.66
2023-02-11T05:05:00.977Z,101389.98
2023-02-11T05:07:30.759Z,101390.55
2023-02-11T05:10:00.961Z,101386.41
2023-02-11T05:12:30.734Z,101386.25
2023-02-11T05:15:00.498Z,101382.29
2023-02-11T05:17:30.281Z,101377.44
2023-02-11T05:20:00.955Z,101370.92
2023-02-11T05:22:31.000Z,101358.45
2023-02-11T05:25:01.069Z,101358.45
2023-02-11T05:27:31.147Z,101348.64
2023-02-11T05:30:00.924Z,101348.17
2023-02-11T05:32:30.681Z,101353.80
2023-02-11T05:35:00.446Z,101354.97
2023-02-11T05:37:30.258Z,101350.11
2023-02-11T05:40:00.289Z,101350.11
2023-02-11T05:42:30.076Z,101351.47
2023-02-11T05:44:59.835Z,101357.19
2023-02-11T05:47:29.686Z,101350.25
2023-02-11T05:49:59.511Z,101350.58
2023-02-11T05:52:29.291Z,101350.58
2023-02-11T05:54:59.160Z,101351.72
2023-02-11T05:57:28.973Z,101338.64
2023-02-11T05:59:58.815Z,101346.58
2023-02-11T06:02:28.706Z,101347.69
2023-02-11T06:04:58.479Z,101343.86
2023-02-11T06:07:28.317Z,101340.22
2023-02-11T06:09:58.090Z,101336.74
2023-02-11T06:12:28.089Z,101336.74
2023-02-11T06:14:57.873Z,101338.07
2023-02-11T06:17:29.354Z,101334.40
2023-02-11T06:19:58.802Z,101321.36
2023-02-11T06:22:29.153Z,101321.36
2023-02-11T06:25:01.709Z,101329.86
2023-02-11T06:27:30.444Z,101333.39
2023-02-11T06:30:00.568Z,101333.81
2023-02-11T06:32:43.284Z,101330.94
2023-02-11T06:35:01.919Z,101330.94
2023-02-11T06:37:31.789Z,101331.99
2023-02-11T06:40:01.863Z,101330.88
2023-02-11T06:42:31.637Z,101334.95
2023-02-11T06:45:01.419Z,101337.44
2023-02-11T06:47:31.181Z,101338.14
2023-02-11T06:50:01.298Z,101334.03
2023-02-11T06:52:31.137Z,101333.23
2023-02-11T06:55:01.408Z,101333.02
2023-02-11T06:57:32.604Z,101329.34
2023-02-11T07:00:03.959Z,101326.20
2023-02-11T07:02:34.735Z,101324.22
2023-02-11T07:05:06.082Z,101322.63
2023-02-11T07:07:35.922Z,101320.53
2023-02-11T07:10:07.368Z,101308.96
2023-02-11T07:12:39.204Z,101307.48
2023-02-11T07:15:09.310Z,101299.98
2023-02-11T07:17:39.188Z,101297.52
2023-02-11T07:20:09.548Z,101300.53
2023-02-11T07:22:39.644Z,101301.94
2023-02-11T07:25:09.543Z,101301.94
2023-02-11T07:27:40.442Z,101305.34
2023-02-11T07:30:13.580Z,101298.05
2023-02-11T07:32:43.388Z,101285.50
2023-02-11T07:35:14.785Z,101279.12
2023-02-11T07:37:45.386Z,101289.11
2023-02-11T07:40:15.171Z,101291.23
2023-02-11T07:42:45.268Z,101291.28
2023-02-11T07:45:15.096Z,101295.36
2023-02-11T07:47:45.879Z,101292.83
2023-02-11T07:50:18.080Z,101285.70
2023-02-11T07:52:47.900Z,101280.52
2023-02-11T07:55:17.434Z,101280.09
2023-02-11T07:57:47.275Z,101289.42
2023-02-11T08:00:21.097Z,101283.16
2023-02-11T08:02:50.548Z,101292.38
2023-02-11T08:05:20.316Z,101301.13
2023-02-11T08:07:55.392Z,101301.13
2023-02-11T08:10:26.151Z,101305.80
2023-02-11T08:12:56.941Z,101292.56
2023-02-11T08:15:25.704Z,101292.56
2023-02-11T08:17:55.149Z,101294.77
2023-02-11T08:20:24.926Z,101300.37
2023-02-11T08:22:54.688Z,101309.48
2023-02-11T08:25:24.493Z,101318.88
2023-02-11T08:27:54.245Z,101315.44
2023-02-11T08:30:27.207Z,101327.54
2023-02-11T08:32:57.073Z,101320.69
2023-02-11T08:35:26.928Z,101315.86
2023-02-11T08:37:56.699Z,101315.86
2023-02-11T08:40:26.484Z,101317.39
2023-02-11T08:42:57.217Z,101323.55
2023-02-11T08:45:26.691Z,101324.25
2023-02-11T08:47:56.577Z,101320.17
2023-02-11T08:50:27.997Z,101317.23
2023-02-11T08:52:57.804Z,101313.98
2023-02-11T08:55:28.969Z,101303.86
2023-02-11T08:57:58.764Z,101291.80
2023-02-11T09:00:28.853Z,101292.70
2023-02-11T09:02:59.115Z,101278.08
2023-02-11T09:05:29.210Z,101272.30
2023-02-11T09:07:59.144Z,101259.58
2023-02-11T09:10:28.915Z,101259.58
2023-02-11T09:12:58.710Z,101257.17
2023-02-11T09:15:28.538Z,101251.17
2023-02-11T09:17:58.966Z,101261.70
2023-02-11T09:20:29.450Z,101244.57
2023-02-11T09:23:00.588Z,101249.83
2023-02-11T09:25:31.308Z,101257.14
2023-02-11T09:28:00.870Z,101250.77
2023-02-11T09:30:30.752Z,101245.53
2023-02-11T09:33:00.545Z,101251.25
2023-02-11T09:35:30.751Z,101251.15
2023-02-11T09:38:00.554Z,101257.33
2023-02-11T09:40:30.697Z,101252.00
2023-02-11T09:43:21.410Z,101238.19
2023-02-11T09:45:51.688Z,101231.94
2023-02-11T09:48:23.318Z,101222.77
2023-02-11T09:50:59.129Z,101200.67
2023-02-11T09:53:31.914Z,101218.17
2023-02-11T09:56:04.371Z,101219.17
2023-02-11T09:58:37.394Z,101215.79
2023-02-11T10:01:26.684Z,101211.08
2023-02-11T10:04:02.358Z,101240.66
2023-02-11T10:06:51.847Z,101238.03
2023-02-11T10:09:37.934Z,101231.82
2023-02-11T10:12:27.326Z,101216.16
2023-02-11T10:15:00.166Z,101209.58
2023-02-11T10:17:46.325Z,101200.13
2023-02-11T10:20:43.062Z,101200.06
2023-02-11T10:23:18.170Z,101204.67
2023-02-11T10:25:56.633Z,101196.88
2023-02-11T10:28:35.786Z,101183.22
2023-02-11T10:31:14.921Z,101198.73
2023-02-11T10:34:03.176Z,101183.00
2023-02-11T10:36:35.958Z,101186.70
2023-02-11T10:39:21.436Z,101190.41
2023-02-11T10:41:57.202Z,101196.23
2023-02-11T10:44:38.551Z,101197.66
2023-02-11T10:47:26.707Z,101186.13
2023-02-11T10:50:00.151Z,101178.77
2023-02-11T10:52:31.080Z,101181.39
2023-02-11T10:55:07.573Z,101183.63
2023-02-11T10:57:45.085Z,101189.67
2023-02-11T11:00:36.991Z,101204.97
2023-02-11T11:03:09.885Z,101207.02
2023-02-11T11:05:48.748Z,101205.53
2023-02-11T11:08:19.849Z,101205.53
2023-02-11T11:11:08.186Z,101192.46
2023-02-11T11:13:43.768Z,101197.84
2023-02-11T11:16:19.475Z,101204.62
2023-02-11T11:18:52.264Z,101199.80
2023-02-11T11:21:34.360Z,101181.22
2023-02-11T11:24:05.088Z,101179.51
2023-02-11T11:26:52.420Z,101180.11
2023-02-11T11:29:36.044Z,101180.43
2023-02-11T11:32:17.297Z,101178.77
2023-02-11T11:34:53.927Z,101184.45
2023-02-11T11:37:29.117Z,101179.87
2023-02-11T11:40:02.330Z,101179.65
2023-02-11T11:42:37.747Z,101169.15
2023-02-11T11:45:25.767Z,101172.45
2023-02-11T11:48:25.905Z,101176.73
2023-02-11T11:50:59.357Z,101176.73
2023-02-11T11:53:56.218Z,101185.92
2023-02-11T11:56:32.064Z,101184.33
2023-02-11T11:59:06.409Z,101180.05
2023-02-11T12:01:54.400Z,101185.02
2023-02-11T12:04:44.900Z,101187.41
2023-02-11T12:07:34.491Z,101172.41
2023-02-11T12:10:34.372Z,101161.59
2023-02-11T12:13:29.653Z,101160.69
2023-02-11T12:16:21.754Z,101147.92
2023-02-11T12:19:19.824Z,101142.25
2023-02-11T12:21:55.499Z,101139.86
2023-02-11T12:24:44.580Z,101138.39
2023-02-11T12:27:22.980Z,101126.06
2023-02-11T12:30:29.068Z,101120.47
2023-02-11T12:33:20.438Z,101138.72
2023-02-11T12:35:53.279Z,101140.55
2023-02-11T12:38:26.035Z,101123.82
2023-02-11T12:41:14.018Z,101109.16
2023-02-11T12:43:45.942Z,101109.16
2023-02-11T12:46:43.950Z,101094.77
2023-02-11T12:49:25.239Z,101092.83
2023-02-11T12:52:01.027Z,101109.84
2023-02-11T12:54:33.852Z,101095.81
2023-02-11T12:57:12.786Z,101096.88
2023-02-11T12:59:52.008Z,101109.11
2023-02-11T13:02:24.643Z,101115.89
2023-02-11T13:04:57.519Z,101104.45
2023-02-11T13:07:42.418Z,101098.92
2023-02-11T13:10:27.299Z,101105.89
2023-02-11T13:13:17.693Z,101113.43
2023-02-11T13:16:08.200Z,101113.95
2023-02-11T13:18:55.303Z,101109.39
2023-02-11T13:21:33.516Z,101122.63
2023-02-11T13:24:22.800Z,101107.42
2023-02-11T13:27:13.365Z,101123.59
2023-02-11T13:29:51.746Z,101121.99
2023-02-11T13:32:21.514Z,101123.09
2023-02-11T13:34:57.140Z,101130.56
2023-02-11T13:37:38.899Z,101119.09
2023-02-11T13:40:29.604Z,101104.48
2023-02-11T13:43:02.391Z,101099.51
2023-02-11T13:45:38.938Z,101102.59
2023-02-11T13:48:26.533Z,101105.39
2023-02-11T13:50:59.672Z,101087.30
2023-02-11T13:53:30.808Z,101089.52
2023-02-11T13:56:10.034Z,101091.35
2023-02-11T13:58:48.813Z,101099.22
2023-02-11T14:01:41.540Z,101099.22
2023-02-11T14:04:41.478Z,101108.99
2023-02-11T14:07:50.021Z,101095.92
2023-02-11T14:10:45.201Z,101105.17
2023-02-11T14:13:34.212Z,101100.53
2023-02-11T14:16:35.328Z,101102.26
2023-02-11T14:18:57.424Z,101108.36
2023-02-11T14:21:32.985Z,101117.78
2023-02-11T14:24:07.081Z,101125.02
2023-02-11T14:26:56.530Z,101125.25
2023-02-11T14:29:41.005Z,101114.92
2023-02-11T14:32:34.191Z,101135.70
2023-02-11T14:35:29.575Z,101137.33
2023-02-11T14:38:17.400Z,101143.03
2023-02-11T14:41:14.259Z,101154.33
2023-02-11T14:43:47.381Z,101154.52
2023-02-11T14:46:19.656Z,101146.99
2023-02-11T14:48:53.530Z,101155.44
2023-02-11T14:51:26.617Z,101159.59
2023-02-11T14:54:16.862Z,101155.48
2023-02-11T14:56:47.980Z,101166.86
2023-02-11T14:59:22.795Z,101172.91
2023-02-11T15:01:58.611Z,101174.81
2023-02-11T15:04:36.304Z,101183.85
2023-02-11T15:07:10.972Z,101180.61
2023-02-11T15:09:50.887Z,101183.64
2023-02-11T15:12:26.520Z,101174.58
2023-02-11T15:15:01.961Z,101183.67
2023-02-11T15:17:33.128Z,101180.75
2023-02-11T15:20:04.967Z,101189.48
2023-02-11T15:22:39.280Z,101177.47
2023-02-11T15:25:13.872Z,101176.88
2023-02-11T15:27:47.700Z,101178.83
2023-02-11T15:30:26.652Z,101170.62
2023-02-11T15:33:00.091Z,101181.92
2023-02-11T15:35:36.579Z,101181.92
2023-02-11T15:38:07.579Z,101183.94
2023-02-11T15:40:38.642Z,101186.35
2023-02-11T15:43:13.157Z,101189.17
2023-02-11T15:45:59.396Z,101189.17
2023-02-11T15:48:38.762Z,101199.31
2023-02-11T15:51:21.843Z,101190.04
2023-02-11T15:53:56.774Z,101199.42
2023-02-11T15:56:34.438Z,101205.82
2023-02-11T15:59:22.034Z,101201.64
2023-02-11T16:01:52.074Z,101194.28
2023-02-11T16:04:24.536Z,101197.95
2023-02-11T16:06:56.519Z,101196.24
2023-02-11T16:09:36.300Z,101212.93
2023-02-11T16:12:09.447Z,101201.78
2023-02-11T16:14:42.206Z,101213.23
2023-02-11T16:17:21.605Z,101196.99
2023-02-11T16:19:53.923Z,101191.29
2023-02-11T16:22:28.068Z,101183.02
2023-02-11T16:24:59.875Z,101183.02
2023-02-11T16:27:36.542Z,101198.97
2023-02-11T16:30:07.438Z,101203.91
2023-02-11T16:32:38.449Z,101194.69
2023-02-11T16:35:08.958Z,101206.48
2023-02-11T16:37:39.310Z,101213.03
2023-02-11T16:40:11.844Z,101222.21
2023-02-11T16:42:41.914Z,101221.50
2023-02-11T16:45:12.181Z,101221.20
2023-02-11T16:47:44.037Z,101225.44
2023-02-11T16:50:25.050Z,101231.39
2023-02-11T16:52:55.118Z,101231.18
2023-02-11T16:55:25.246Z,101234.12
2023-02-11T16:57:55.119Z,101237.55
2023-02-11T17:00:24.970Z,101236.83
2023-02-11T17:02:54.932Z,101244.16
2023-02-11T17:05:25.934Z,101263.66
2023-02-11T17:07:55.847Z,101273.95
2023-02-11T17:10:26.187Z,101273.95
2023-02-11T17:12:56.241Z,101268.51
2023-02-11T17:15:26.093Z,101268.11
2023-02-11T17:17:55.874Z,101282.02
2023-02-11T17:20:25.890Z,101293.98
2023-02-11T17:22:55.744Z,101289.04
2023-02-11T17:25:28.048Z,101287.32
2023-02-11T17:27:59.650Z,101299.53
2023-02-11T17:30:29.457Z,101301.29
2023-02-11T17:33:00.164Z,101311.73
2023-02-11T17:35:30.162Z,101308.70
2023-02-11T17:38:01.438Z,101321.16
2023-02-11T17:40:31.251Z,101326.11
2023-02-11T17:43:01.100Z,101323.23
2023-02-11T17:45:30.997Z,101321.77
2023-02-11T17:48:06.908Z,101330.20
2023-02-11T17:50:43.188Z,101330.80
2023-02-11T17:53:13.888Z,101336.55
2023-02-11T17:55:43.790Z,101337.45
2023-02-11T17:58:14.392Z,101341.31
2023-02-11T18:00:46.297Z,101347.97
2023-02-11T18:03:15.833Z,101340.66
2023-02-11T18:05:45.612Z,101347.26
2023-02-11T18:08:16.278Z,101343.81
2023-02-11T18:10:46.113Z,101342.05
2023-02-11T18:13:19.560Z,101342.05
2023-02-11T18:15:52.091Z,101346.97
2023-02-11T18:18:24.482Z,101347.77
2023-02-11T18:20:59.501Z,101350.59
2023-02-11T18:23:29.307Z,101355.28
2023-02-11T18:25:59.371Z,101360.13
2023-02-11T18:28:29.198Z,101361.84
2023-02-11T18:31:00.496Z,101356.88
2023-02-11T18:33:31.364Z,101360.45
2023-02-11T18:36:01.235Z,101360.67
2023-02-11T18:38:31.293Z,101361.32
2023-02-11T18:41:13.825Z,101352.89
2023-02-11T18:43:43.862Z,101359.39
2023-02-11T18:46:15.418Z,101351.94
2023-02-11T18:48:45.016Z,101343.03
2023-02-11T18:51:19.607Z,101346.44
2023-02-11T18:53:49.575Z,101350.91
2023-02-11T18:56:22.712Z,101342.95
2023-02-11T18:58:52.617Z,101354.48
2023-02-11T19:01:27.334Z,101354.75
2023-02-11T19:03:59.635Z,101361.11
2023-02-11T19:06:31.493Z,101356.47
2023-02-11T19:09:04.320Z,101357.25
2023-02-11T19:11:54.565Z,101357.25
2023-02-11T19:14:26.579Z,101364.56
2023-02-11T19:16:58.739Z,101375.55
2023-02-11T19:19:31.601Z,101374.88
2023-02-11T19:22:02.944Z,101380.48
2023-02-11T19:24:32.014Z,101374.28
2023-02-11T19:27:03.967Z,101378.08
2023-02-11T19:29:35.309Z,101381.61
2023-02-11T19:32:08.368Z,101376.05
2023-02-11T19:34:41.597Z,101379.44
2023-02-11T19:37:14.094Z,101379.98
2023-02-11T19:39:46.335Z,101382.42
2023-02-11T19:42:16.124Z,101382.25
2023-02-11T19:44:46.898Z,101379.66
2023-02-11T19:47:16.941Z,101384.81
2023-02-11T19:49:46.956Z,101387.98
2023-02-11T19:52:16.569Z,101389.07
2023-02-11T19:54:46.363Z,101385.58
2023-02-11T19:57:16.110Z,101396.92
2023-02-11T19:59:45.896Z,101397.48
2023-02-11T20:02:15.758Z,101397.59
2023-02-11T20:04:46.179Z,101405.87
2023-02-11T20:07:16.052Z,101411.97
2023-02-11T20:09:46.863Z,101408.42
2023-02-11T20:12:16.747Z,101431.24
2023-02-11T20:14:46.599Z,101431.24
2023-02-11T20:17:16.106Z,101427.39
2023-02-11T20:19:45.891Z,101421.15
2023-02-11T20:22:15.682Z,101422.06
2023-02-11T20:24:45.528Z,101434.31
2023-02-11T20:27:18.368Z,101438.97
2023-02-11T20:29:47.784Z,101436.70
2023-02-11T20:32:17.602Z,101444.22
2023-02-11T20:34:47.407Z,101437.78
2023-02-11T20:37:17.691Z,101436.42
2023-02-11T20:39:50.821Z,101431.69
2023-02-11T20:42:20.638Z,101435.52
2023-02-11T20:44:50.432Z,101449.10
2023-02-11T20:47:20.257Z,101452.78
2023-02-11T20:49:50.385Z,101455.51
2023-02-11T20:52:19.873Z,101455.55
2023-02-11T20:54:49.646Z,101457.32
2023-02-11T20:57:19.208Z,101457.32
2023-02-11T20:59:49.265Z,101465.13
2023-02-11T21:02:18.815Z,101461.09
2023-02-11T21:04:48.594Z,101461.45
2023-02-11T21:07:19.042Z,101466.20
2023-02-11T21:09:50.875Z,101474.81
2023-02-11T21:12:20.364Z,101479.72
2023-02-11T21:14:50.200Z,101487.05
2023-02-11T21:17:19.824Z,101499.92
2023-02-11T21:19:49.773Z,101508.20
2023-02-11T21:22:20.173Z,101505.63
2023-02-11T21:24:49.878Z,101512.42
2023-02-11T21:27:19.766Z,101523.28
2023-02-11T21:29:54.667Z,101507.39
2023-02-11T21:32:20.938Z,101514.31
2023-02-11T21:34:50.726Z,101519.67
2023-02-11T21:37:21.332Z,101518.89
2023-02-11T21:39:51.069Z,101524.13
2023-02-11T21:42:22.007Z,101527.08
2023-02-11T21:44:54.324Z,101534.00
2023-02-11T21:47:23.936Z,101533.59
2023-02-11T21:49:54.664Z,101537.07
2023-02-11T21:52:24.706Z,101537.26
2023-02-11T21:54:54.516Z,101534.04
2023-02-11T21:57:24.195Z,101536.27
2023-02-11T21:59:54.268Z,101542.73
2023-02-11T22:02:23.723Z,101548.61
2023-02-11T22:04:53.702Z,101549.88
2023-02-11T22:07:23.648Z,101550.47
2023-02-11T22:09:55.612Z,101555.67
2023-02-11T22:12:25.086Z,101558.42
2023-02-11T22:14:54.829Z,101558.48
2023-02-11T22:17:24.814Z,101562.81
2023-02-11T22:19:56.196Z,101573.22
2023-02-11T22:22:26.044Z,101576.13
2023-02-11T22:24:56.070Z,101576.13
2023-02-11T22:27:25.848Z,101589.06
2023-02-11T22:29:55.595Z,101586.58
2023-02-11T22:32:25.378Z,101599.70
2023-02-11T22:34:55.202Z,101607.53
2023-02-11T22:37:24.693Z,101604.45
2023-02-11T22:39:54.461Z,101609.39
2023-02-11T22:42:24.441Z,101607.13
2023-02-11T22:44:54.209Z,101608.30
2023-02-11T22:47:23.688Z,101605.67
2023-02-11T22:49:53.518Z,101604.23
2023-02-11T22:52:23.711Z,101604.91
2023-02-11T22:54:54.993Z,101606.80
2023-02-11T22:57:24.493Z,101617.85
2023-02-11T22:59:54.312Z,101615.50
2023-02-11T23:02:23.853Z,101608.98
2023-02-11T23:04:53.726Z,101599.20
2023-02-11T23:07:23.196Z,101609.39
2023-02-11T23:09:53.957Z,101612.86
2023-02-11T23:12:23.805Z,101623.42
2023-02-11T23:14:53.570Z,101611.83
2023-02-11T23:17:24.554Z,101615.94
2023-02-11T23:19:54.289Z,101627.11
2023-02-11T23:22:24.980Z,101626.57
2023-02-11T23:24:54.516Z,101624.77
2023-02-11T23:27:24.304Z,101624.77
2023-02-11T23:29:58.287Z,101626.89
2023-02-11T23:32:28.148Z,101626.30
2023-02-11T23:34:57.976Z,101624.05
2023-02-11T23:37:27.753Z,101624.05
2023-02-11T23:39:57.516Z,101636.03
2023-02-11T23:42:28.596Z,101638.25
2023-02-11T23:44:58.353Z,101636.91
2023-02-11T23:47:28.138Z,101637.70
2023-02-11T23:49:59.614Z,101648.41
2023-02-11T23:52:29.439Z,101642.95
2023-02-11T23:54:59.199Z,101647.95
2023-02-11T23:57:29.132Z,101647.47
2023-02-11T23:59:59.967Z,101655.17
